createdAt,value
2022-10-25T00:00:35.089Z,0.00
2022-10-25T00:01:35.394Z,0.00
2022-10-25T00:02:36.474Z,0.00
2022-10-25T00:03:35.578Z,0.00
2022-10-25T00:04:34.738Z,0.00
2022-10-25T00:05:36.252Z,0.00
2022-10-25T00:06:35.120Z,0.00
2022-10-25T00:07:34.272Z,0.00
2022-10-25T00:08:35.491Z,0.00
2022-10-25T00:09:35.682Z,0.00
2022-10-25T00:10:33.781Z,0.00
2022-10-25T00:11:35.064Z,0.00
2022-10-25T00:12:36.329Z,0.00
2022-10-25T00:13:35.352Z,0.00
2022-10-25T00:14:34.517Z,0.00
2022-10-25T00:15:34.705Z,0.00
2022-10-25T00:16:34.881Z,0.00
2022-10-25T00:17:35.103Z,0.00
2022-10-25T00:18:36.304Z,0.00
2022-10-25T00:19:35.453Z,0.00
2022-10-25T00:20:35.654Z,0.00
2022-10-25T00:21:35.845Z,0.00
2022-10-25T00:22:33.922Z,0.00
2022-10-25T00:23:36.325Z,0.00
2022-10-25T00:24:34.319Z,0.00
2022-10-25T00:25:34.524Z,0.00
2022-10-25T00:26:35.765Z,0.00
2022-10-25T00:28:36.142Z,0.00
2022-10-25T00:29:35.316Z,0.00
2022-10-25T00:30:34.403Z,0.00
2022-10-25T00:31:49.117Z,0.00
2022-10-25T00:32:34.765Z,0.00
2022-10-25T00:33:33.914Z,0.00
2022-10-25T00:34:35.138Z,0.00
2022-10-25T00:35:35.385Z,0.00
2022-10-25T00:36:33.429Z,0.00
2022-10-25T00:37:35.742Z,0.00
2022-10-25T00:38:35.883Z,0.00
2022-10-25T00:40:35.227Z,0.00
2022-10-25T00:41:34.407Z,0.00
2022-10-25T00:42:35.594Z,0.00
2022-10-25T00:43:34.750Z,0.00
2022-10-25T00:44:33.905Z,0.00
2022-10-25T00:45:34.134Z,0.00
2022-10-25T00:46:33.287Z,0.00
2022-10-25T00:47:33.499Z,0.00
2022-10-25T00:48:33.681Z,0.00
2022-10-25T00:49:33.888Z,0.00
2022-10-25T00:50:34.068Z,0.00
2022-10-25T00:51:33.227Z,0.00
2022-10-25T00:52:33.425Z,0.00
2022-10-25T00:53:33.657Z,0.00
2022-10-25T00:54:33.811Z,0.00
2022-10-25T00:55:35.028Z,0.00
2022-10-25T00:56:35.220Z,0.00
2022-10-25T00:57:34.367Z,0.00
2022-10-25T00:58:34.587Z,0.00
2022-10-25T00:59:34.740Z,0.00
2022-10-25T01:00:34.936Z,0.00
2022-10-25T01:01:35.237Z,0.00
2022-10-25T01:02:33.373Z,0.00
2022-10-25T01:03:34.498Z,0.00
2022-10-25T01:04:34.705Z,0.00
2022-10-25T01:05:33.836Z,0.00
2022-10-25T01:06:34.029Z,0.00
2022-10-25T01:07:34.222Z,0.00
2022-10-25T01:08:34.406Z,0.00
2022-10-25T01:09:34.599Z,0.00
2022-10-25T01:10:48.512Z,0.00
2022-10-25T01:11:35.000Z,0.00
2022-10-25T01:12:34.323Z,0.00
2022-10-25T01:13:33.282Z,0.00
2022-10-25T01:14:33.490Z,0.00
2022-10-25T01:15:33.699Z,0.00
2022-10-25T01:16:34.987Z,0.00
2022-10-25T01:17:33.037Z,0.00
2022-10-25T01:18:34.281Z,0.00
2022-10-25T01:20:33.622Z,0.00
2022-10-25T01:21:34.860Z,0.00
2022-10-25T01:22:35.119Z,0.00
2022-10-25T01:23:35.252Z,0.00
2022-10-25T01:24:34.397Z,0.00
2022-10-25T01:25:34.620Z,0.00
2022-10-25T01:26:33.756Z,0.00
2022-10-25T01:27:32.919Z,0.00
2022-10-25T01:28:34.285Z,0.00
2022-10-25T01:29:34.323Z,0.00
2022-10-25T01:30:33.505Z,0.00
2022-10-25T01:32:23.490Z,0.00
2022-10-25T01:32:32.825Z,0.00
2022-10-25T01:33:32.998Z,0.00
2022-10-25T01:34:33.185Z,0.00
2022-10-25T01:35:33.311Z,0.04
2022-10-25T01:36:34.536Z,0.00
2022-10-25T01:37:33.642Z,0.00
2022-10-25T01:38:32.773Z,0.00
2022-10-25T01:39:32.976Z,0.00
2022-10-25T01:40:33.203Z,0.04
2022-10-25T01:41:33.363Z,0.00
2022-10-25T01:42:34.633Z,0.00
2022-10-25T01:43:32.743Z,0.00
2022-10-25T01:44:33.975Z,0.00
2022-10-25T01:45:33.105Z,0.00
2022-10-25T01:46:33.345Z,0.00
2022-10-25T01:47:33.463Z,0.00
2022-10-25T01:48:32.603Z,0.00
2022-10-25T01:49:32.763Z,0.00
2022-10-25T01:50:32.933Z,0.00
2022-10-25T01:51:33.119Z,0.00
2022-10-25T01:52:33.361Z,0.00
2022-10-25T01:53:32.435Z,0.00
2022-10-25T01:54:32.615Z,0.00
2022-10-25T01:55:32.786Z,0.00
2022-10-25T01:56:32.973Z,0.00
2022-10-25T01:57:33.141Z,0.00
2022-10-25T01:58:33.530Z,0.00
2022-10-25T01:59:32.474Z,0.00
2022-10-25T02:00:32.702Z,0.00
2022-10-25T02:01:33.074Z,0.00
2022-10-25T02:02:33.012Z,0.00
2022-10-25T02:03:33.165Z,0.00
2022-10-25T02:04:32.368Z,0.00
2022-10-25T02:05:32.498Z,0.00
2022-10-25T02:06:34.725Z,0.00
2022-10-25T02:07:32.849Z,0.00
2022-10-25T02:08:33.015Z,0.00
2022-10-25T02:09:33.205Z,0.00
2022-10-25T02:10:32.355Z,0.00
2022-10-25T02:11:32.545Z,0.00
2022-10-25T02:12:32.264Z,0.00
2022-10-25T02:13:32.427Z,0.00
2022-10-25T02:14:32.604Z,0.00
2022-10-25T02:15:32.767Z,0.00
2022-10-25T02:16:32.957Z,0.00
2022-10-25T02:17:32.096Z,0.00
2022-10-25T02:18:32.285Z,0.00
2022-10-25T02:19:32.449Z,0.00
2022-10-25T02:20:32.688Z,0.00
2022-10-25T02:21:33.747Z,0.00
2022-10-25T02:22:34.024Z,0.00
2022-10-25T02:23:32.109Z,0.00
2022-10-25T02:24:32.288Z,0.00
2022-10-25T02:25:32.467Z,0.00
2022-10-25T02:26:32.709Z,0.00
2022-10-25T02:27:32.870Z,0.00
2022-10-25T02:28:32.021Z,0.00
2022-10-25T02:29:32.233Z,0.00
2022-10-25T02:30:32.409Z,0.00
2022-10-25T02:31:32.630Z,0.00
2022-10-25T02:32:33.179Z,0.00
2022-10-25T02:33:31.939Z,0.00
2022-10-25T02:34:32.123Z,0.00
2022-10-25T02:35:32.279Z,0.00
2022-10-25T02:36:32.460Z,0.00
2022-10-25T02:37:32.650Z,0.00
2022-10-25T02:38:31.809Z,0.04
2022-10-25T02:39:32.009Z,0.00
2022-10-25T02:40:32.159Z,0.00
2022-10-25T02:41:32.361Z,0.00
2022-10-25T02:42:32.529Z,0.00
2022-10-25T02:43:32.726Z,0.00
2022-10-25T02:44:31.839Z,0.00
2022-10-25T02:45:32.037Z,0.00
2022-10-25T02:46:32.200Z,0.00
2022-10-25T02:47:32.391Z,0.00
2022-10-25T02:48:32.602Z,0.00
2022-10-25T02:49:32.759Z,0.00
2022-10-25T02:50:31.914Z,0.00
2022-10-25T02:51:32.095Z,0.00
2022-10-25T02:53:31.703Z,0.00
2022-10-25T02:54:31.893Z,0.00
2022-10-25T02:55:32.114Z,0.00
2022-10-25T02:56:32.315Z,0.00
2022-10-25T02:57:32.431Z,0.00
2022-10-25T02:58:32.601Z,0.00
2022-10-25T02:59:31.750Z,0.00
2022-10-25T03:00:32.057Z,0.00
2022-10-25T03:01:34.234Z,0.00
2022-10-25T03:02:32.320Z,0.00
2022-10-25T03:03:31.449Z,0.00
2022-10-25T03:04:31.636Z,0.00
2022-10-25T03:05:31.823Z,0.00
2022-10-25T03:06:32.081Z,0.00
2022-10-25T03:07:32.233Z,0.00
2022-10-25T03:08:31.417Z,0.00
2022-10-25T03:09:31.603Z,0.00
2022-10-25T03:10:31.811Z,0.00
2022-10-25T03:11:32.023Z,0.00
2022-10-25T03:12:32.313Z,0.00
2022-10-25T03:13:31.443Z,0.00
2022-10-25T03:14:31.652Z,0.00
2022-10-25T03:15:31.858Z,0.00
2022-10-25T03:16:32.057Z,0.00
2022-10-25T03:17:32.281Z,0.00
2022-10-25T03:18:32.467Z,0.00
2022-10-25T03:21:32.040Z,0.00
2022-10-25T03:22:31.205Z,0.00
2022-10-25T03:23:31.583Z,0.00
2022-10-25T03:24:31.759Z,0.00
2022-10-25T03:25:31.855Z,0.00
2022-10-25T03:26:32.073Z,0.00
2022-10-25T03:27:31.246Z,0.00
2022-10-25T03:28:31.236Z,0.00
2022-10-25T03:29:32.507Z,0.00
2022-10-25T03:30:31.636Z,0.00
2022-10-25T03:31:32.759Z,0.00
2022-10-25T03:32:31.995Z,0.00
2022-10-25T03:34:32.403Z,0.00
2022-10-25T03:35:32.939Z,0.00
2022-10-25T03:36:31.728Z,0.00
2022-10-25T03:37:31.920Z,0.00
2022-10-25T03:38:32.115Z,0.00
2022-10-25T03:39:31.285Z,0.00
2022-10-25T03:40:32.516Z,0.00
2022-10-25T03:41:31.707Z,0.00
2022-10-25T03:42:31.895Z,0.00
2022-10-25T03:43:31.035Z,0.00
2022-10-25T03:44:31.241Z,0.00
2022-10-25T03:45:31.447Z,0.00
2022-10-25T03:47:31.877Z,0.00
2022-10-25T03:48:30.997Z,0.00
2022-10-25T03:49:31.209Z,0.00
2022-10-25T03:50:31.415Z,0.00
2022-10-25T03:51:31.616Z,0.00
2022-10-25T03:52:31.800Z,0.00
2022-10-25T03:53:31.014Z,0.00
2022-10-25T03:54:31.178Z,0.00
2022-10-25T03:55:32.420Z,0.00
2022-10-25T03:57:30.761Z,0.04
2022-10-25T03:58:32.033Z,0.00
2022-10-25T03:59:32.201Z,0.00
2022-10-25T04:00:32.472Z,0.00
2022-10-25T04:01:31.725Z,0.00
2022-10-25T04:02:31.799Z,0.00
2022-10-25T04:03:30.978Z,0.00
2022-10-25T04:04:31.263Z,0.00
2022-10-25T04:05:32.445Z,0.00
2022-10-25T04:06:31.606Z,0.00
2022-10-25T04:07:30.788Z,0.00
2022-10-25T04:09:31.141Z,0.02
2022-10-25T04:11:30.517Z,0.00
2022-10-25T04:12:30.721Z,0.23
2022-10-25T04:13:30.925Z,0.00
2022-10-25T04:14:31.139Z,0.00
2022-10-25T04:15:31.331Z,0.00
2022-10-25T04:16:30.752Z,0.00
2022-10-25T04:17:30.691Z,0.00
2022-10-25T04:18:30.913Z,0.00
2022-10-25T04:19:32.145Z,0.02
2022-10-25T04:20:32.343Z,0.00
2022-10-25T04:21:30.457Z,0.05
2022-10-25T04:22:30.725Z,0.00
2022-10-25T04:23:30.829Z,0.02
2022-10-25T04:24:31.031Z,0.00
2022-10-25T04:25:32.261Z,0.00
2022-10-25T04:26:30.384Z,0.00
2022-10-25T04:27:30.576Z,0.00
2022-10-25T04:28:30.820Z,0.00
2022-10-25T04:29:32.007Z,0.00
2022-10-25T04:30:35.079Z,0.00
2022-10-25T04:31:33.311Z,0.00
2022-10-25T04:32:30.536Z,0.00
2022-10-25T04:34:30.943Z,0.00
2022-10-25T04:35:31.148Z,0.00
2022-10-25T04:36:32.379Z,0.00
2022-10-25T04:37:30.498Z,0.00
2022-10-25T04:38:30.701Z,0.00
2022-10-25T04:39:31.681Z,0.00
2022-10-25T04:40:31.108Z,0.00
2022-10-25T04:41:30.273Z,0.00
2022-10-25T04:42:30.457Z,0.01
2022-10-25T04:43:30.657Z,0.02
2022-10-25T04:44:30.887Z,0.02
2022-10-25T04:45:31.090Z,0.02
2022-10-25T04:46:30.241Z,0.02
2022-10-25T04:47:30.443Z,0.02
2022-10-25T04:48:31.667Z,0.02
2022-10-25T04:49:31.801Z,0.01
2022-10-25T04:50:32.143Z,0.02
2022-10-25T04:51:32.336Z,0.02
2022-10-25T04:52:31.504Z,0.01
2022-10-25T04:53:31.723Z,0.02
2022-10-25T04:54:30.921Z,0.01
2022-10-25T04:55:31.134Z,0.01
2022-10-25T04:56:31.453Z,0.01
2022-10-25T04:57:30.557Z,0.00
2022-10-25T04:58:31.594Z,0.02
2022-10-25T04:59:32.009Z,0.02
2022-10-25T05:00:30.125Z,0.05
2022-10-25T05:01:33.804Z,0.02
2022-10-25T05:02:31.615Z,0.00
2022-10-25T05:03:30.745Z,0.02
2022-10-25T05:04:29.932Z,0.00
2022-10-25T05:05:32.205Z,0.02
2022-10-25T05:06:30.328Z,0.02
2022-10-25T05:07:31.195Z,0.00
2022-10-25T05:08:30.741Z,0.00
2022-10-25T05:09:32.001Z,0.00
2022-10-25T05:10:30.149Z,0.00
2022-10-25T05:11:30.373Z,0.00
2022-10-25T05:12:31.629Z,0.00
2022-10-25T05:13:29.807Z,0.00
2022-10-25T05:14:32.036Z,0.00
2022-10-25T05:15:32.260Z,0.00
2022-10-25T05:16:30.393Z,0.00
2022-10-25T05:17:30.612Z,0.02
2022-10-25T05:18:31.917Z,0.02
2022-10-25T05:19:32.131Z,0.02
2022-10-25T05:20:30.216Z,0.02
2022-10-25T05:21:31.066Z,0.02
2022-10-25T05:22:30.673Z,0.00
2022-10-25T05:23:29.820Z,0.01
2022-10-25T05:24:30.069Z,0.01
2022-10-25T05:25:31.323Z,0.05
2022-10-25T05:26:30.472Z,0.01
2022-10-25T05:27:29.613Z,0.01
2022-10-25T05:28:29.822Z,0.01
2022-10-25T05:29:30.030Z,0.02
2022-10-25T05:30:30.709Z,0.02
2022-10-25T05:31:30.442Z,0.02
2022-10-25T05:32:30.649Z,0.03
2022-10-25T05:33:30.861Z,0.03
2022-10-25T05:34:37.322Z,0.03
2022-10-25T05:35:30.234Z,0.04
2022-10-25T05:36:30.426Z,0.11
2022-10-25T05:37:29.602Z,0.09
2022-10-25T05:38:34.206Z,0.08
2022-10-25T05:39:31.017Z,0.13
2022-10-25T05:40:30.249Z,0.11
2022-10-25T05:41:33.256Z,0.13
2022-10-25T05:42:30.652Z,0.15
2022-10-25T05:43:30.916Z,0.18
2022-10-25T05:44:30.085Z,0.21
2022-10-25T05:45:30.299Z,0.24
2022-10-25T05:46:30.515Z,0.29
2022-10-25T05:47:30.715Z,0.38
2022-10-25T05:48:31.963Z,0.45
2022-10-25T05:49:33.093Z,0.50
2022-10-25T05:50:30.349Z,0.60
2022-10-25T05:51:36.175Z,0.68
2022-10-25T05:52:30.626Z,0.79
2022-10-25T05:53:31.894Z,0.92
2022-10-25T05:54:32.115Z,1.04
2022-10-25T05:55:31.305Z,1.19
2022-10-25T05:56:30.397Z,1.36
2022-10-25T05:57:30.601Z,1.55
2022-10-25T05:58:29.725Z,1.77
2022-10-25T05:59:29.915Z,2.02
2022-10-25T06:00:31.243Z,2.30
2022-10-25T06:01:30.491Z,2.61
2022-10-25T06:02:29.516Z,2.95
2022-10-25T06:03:30.717Z,3.53
2022-10-25T06:04:29.863Z,4.19
2022-10-25T06:05:29.012Z,4.83
2022-10-25T06:06:30.294Z,6.04
2022-10-25T06:07:30.664Z,7.05
2022-10-25T06:08:30.685Z,8.02
2022-10-25T06:09:30.897Z,8.74
2022-10-25T06:10:30.064Z,9.01
2022-10-25T06:11:30.280Z,9.85
2022-10-25T06:12:29.458Z,10.08
2022-10-25T06:13:29.751Z,10.04
2022-10-25T06:14:29.863Z,11.38
2022-10-25T06:15:30.075Z,12.50
2022-10-25T06:16:30.262Z,13.43
2022-10-25T06:17:30.443Z,14.41
2022-10-25T06:18:29.627Z,15.17
2022-10-25T06:19:31.313Z,16.00
2022-10-25T06:20:29.135Z,17.17
2022-10-25T06:21:29.164Z,18.76
2022-10-25T06:22:30.406Z,20.32
2022-10-25T06:23:29.604Z,22.45
2022-10-25T06:24:29.765Z,24.23
2022-10-25T06:25:28.964Z,23.92
2022-10-25T06:26:30.219Z,25.86
2022-10-25T06:27:30.356Z,29.03
2022-10-25T06:28:29.545Z,38.90
2022-10-25T06:29:29.715Z,45.72
2022-10-25T06:30:28.944Z,55.87
2022-10-25T06:32:08.612Z,74.07
2022-10-25T06:32:29.271Z,76.58
2022-10-25T06:33:29.452Z,90.88
2022-10-25T06:34:29.648Z,102.13
2022-10-25T06:35:36.080Z,111.41
2022-10-25T06:36:28.999Z,118.85
2022-10-25T06:37:29.203Z,124.43
2022-10-25T06:38:29.393Z,128.13
2022-10-25T06:39:30.608Z,137.73
2022-10-25T06:40:30.815Z,149.43
2022-10-25T06:41:30.990Z,165.24
2022-10-25T06:42:30.670Z,173.56
2022-10-25T06:43:30.339Z,183.57
2022-10-25T06:44:29.537Z,189.33
2022-10-25T06:45:28.653Z,196.72
2022-10-25T06:46:29.868Z,208.76
2022-10-25T06:47:29.048Z,225.17
2022-10-25T06:48:29.377Z,239.52
2022-10-25T06:49:29.419Z,253.85
2022-10-25T06:50:29.615Z,262.12
2022-10-25T06:51:30.729Z,269.57
2022-10-25T06:52:28.947Z,258.38
2022-10-25T06:53:30.220Z,274.05
2022-10-25T06:54:29.353Z,320.09
2022-10-25T06:55:28.546Z,327.04
2022-10-25T06:56:30.797Z,338.17
2022-10-25T06:57:29.984Z,339.73
2022-10-25T06:58:29.172Z,332.18
2022-10-25T06:59:30.437Z,323.87
2022-10-25T07:00:30.573Z,318.54
2022-10-25T07:01:28.840Z,318.20
2022-10-25T07:02:29.002Z,327.81
2022-10-25T07:03:30.119Z,340.92
2022-10-25T07:04:28.266Z,349.35
2022-10-25T07:05:30.572Z,354.30
2022-10-25T07:06:29.787Z,354.98
2022-10-25T07:07:29.940Z,359.35
2022-10-25T07:08:29.104Z,364.40
2022-10-25T07:09:30.380Z,372.04
2022-10-25T07:10:30.616Z,369.11
2022-10-25T07:11:30.806Z,390.41
2022-10-25T07:12:28.937Z,305.87
2022-10-25T07:13:30.061Z,396.50
2022-10-25T07:14:29.310Z,406.56
2022-10-25T07:15:29.522Z,312.23
2022-10-25T07:16:28.708Z,388.04
2022-10-25T07:17:28.911Z,397.04
2022-10-25T07:18:30.131Z,405.76
2022-10-25T07:19:28.273Z,413.22
2022-10-25T07:20:28.487Z,423.57
2022-10-25T07:21:28.690Z,433.84
2022-10-25T07:22:30.111Z,442.56
2022-10-25T07:23:30.035Z,444.58
2022-10-25T07:24:28.236Z,447.63
2022-10-25T07:25:28.482Z,454.31
2022-10-25T07:26:28.691Z,450.19
2022-10-25T07:27:28.864Z,443.19
2022-10-25T07:28:28.070Z,431.69
2022-10-25T07:29:28.224Z,404.12
2022-10-25T07:30:28.498Z,391.72
2022-10-25T07:31:59.780Z,389.84
2022-10-25T07:32:28.863Z,395.03
2022-10-25T07:33:30.172Z,390.40
2022-10-25T07:34:28.241Z,297.59
2022-10-25T07:35:28.816Z,409.08
2022-10-25T07:36:30.030Z,423.41
2022-10-25T07:37:30.211Z,381.31
2022-10-25T07:38:29.353Z,363.74
2022-10-25T07:39:29.568Z,381.96
2022-10-25T07:40:29.728Z,495.76
2022-10-25T07:41:29.903Z,407.33
2022-10-25T07:42:30.138Z,339.28
2022-10-25T07:43:29.288Z,296.73
2022-10-25T07:44:28.487Z,293.41
2022-10-25T07:45:30.370Z,430.61
2022-10-25T07:46:27.966Z,512.31
2022-10-25T07:47:28.181Z,385.97
2022-10-25T07:48:28.406Z,443.76
2022-10-25T07:49:29.662Z,456.59
2022-10-25T07:50:27.776Z,472.22
2022-10-25T07:51:35.338Z,530.79
2022-10-25T07:52:29.213Z,412.27
2022-10-25T07:53:29.419Z,453.63
2022-10-25T07:54:29.663Z,421.11
2022-10-25T07:55:27.752Z,370.25
2022-10-25T07:56:27.953Z,252.04
2022-10-25T07:57:28.230Z,249.37
2022-10-25T07:58:28.347Z,250.44
2022-10-25T07:59:28.566Z,261.46
2022-10-25T08:00:27.740Z,287.61
2022-10-25T08:01:30.088Z,253.26
2022-10-25T08:02:27.545Z,403.11
2022-10-25T08:03:27.842Z,270.81
2022-10-25T08:04:27.963Z,294.46
2022-10-25T08:05:28.146Z,294.27
2022-10-25T08:06:28.340Z,283.03
2022-10-25T08:07:28.566Z,281.46
2022-10-25T08:08:27.693Z,299.82
2022-10-25T08:09:38.523Z,316.39
2022-10-25T08:10:28.449Z,462.77
2022-10-25T08:11:28.671Z,591.09
2022-10-25T08:12:27.795Z,276.15
2022-10-25T08:13:27.944Z,265.48
2022-10-25T08:14:29.159Z,259.88
2022-10-25T08:15:28.408Z,261.71
2022-10-25T08:16:29.497Z,283.24
2022-10-25T08:17:28.617Z,287.57
2022-10-25T08:18:28.805Z,278.24
2022-10-25T08:19:27.948Z,270.18
2022-10-25T08:20:49.113Z,263.86
2022-10-25T08:21:29.506Z,262.51
2022-10-25T08:22:27.545Z,265.28
2022-10-25T08:23:27.729Z,275.91
2022-10-25T08:24:28.911Z,287.42
2022-10-25T08:25:27.128Z,294.55
2022-10-25T08:26:36.992Z,296.68
2022-10-25T08:27:29.600Z,297.96
2022-10-25T08:28:27.709Z,304.58
2022-10-25T08:29:27.932Z,317.09
2022-10-25T08:30:28.119Z,336.18
2022-10-25T08:31:29.368Z,327.73
2022-10-25T08:32:28.668Z,320.75
2022-10-25T08:33:27.711Z,314.37
2022-10-25T08:34:29.638Z,308.15
2022-10-25T08:35:28.101Z,315.45
2022-10-25T08:36:28.619Z,404.93
2022-10-25T08:37:28.809Z,316.14
2022-10-25T08:38:28.017Z,309.70
2022-10-25T08:39:28.195Z,312.71
2022-10-25T08:40:28.368Z,320.34
2022-10-25T08:41:27.029Z,409.78
2022-10-25T08:42:28.219Z,383.87
2022-10-25T08:43:29.638Z,349.20
2022-10-25T08:44:27.541Z,375.14
2022-10-25T08:45:28.753Z,369.81
2022-10-25T08:46:28.927Z,341.29
2022-10-25T08:47:26.969Z,618.58
2022-10-25T08:48:28.194Z,393.10
2022-10-25T08:49:28.647Z,689.93
2022-10-25T08:50:27.556Z,694.85
2022-10-25T08:51:29.812Z,703.01
2022-10-25T08:52:26.901Z,708.45
2022-10-25T08:53:28.168Z,727.33
2022-10-25T08:54:29.580Z,752.95
2022-10-25T08:55:28.557Z,781.15
2022-10-25T08:56:28.748Z,818.96
2022-10-25T08:57:28.955Z,825.91
2022-10-25T08:58:29.158Z,866.75
2022-10-25T08:59:28.317Z,537.00
2022-10-25T09:00:27.483Z,498.53
2022-10-25T09:01:27.742Z,364.06
2022-10-25T09:02:26.934Z,322.76
2022-10-25T09:03:26.931Z,314.43
2022-10-25T09:04:29.176Z,305.50
2022-10-25T09:05:27.308Z,305.69
2022-10-25T09:06:28.647Z,310.93
2022-10-25T09:07:28.725Z,311.37
2022-10-25T09:08:26.823Z,315.41
2022-10-25T09:09:29.107Z,321.23
2022-10-25T09:10:28.238Z,327.27
2022-10-25T09:11:28.480Z,331.95
2022-10-25T09:12:27.641Z,338.89
2022-10-25T09:13:26.810Z,344.97
2022-10-25T09:14:28.007Z,364.15
2022-10-25T09:15:29.046Z,377.75
2022-10-25T09:16:27.377Z,392.80
2022-10-25T09:17:26.551Z,401.91
2022-10-25T09:18:26.788Z,403.19
2022-10-25T09:19:28.973Z,396.92
2022-10-25T09:20:27.079Z,414.34
2022-10-25T09:21:29.329Z,408.13
2022-10-25T09:22:27.455Z,417.29
2022-10-25T09:23:26.562Z,375.78
2022-10-25T09:24:29.033Z,339.40
2022-10-25T09:25:26.938Z,326.53
2022-10-25T09:26:27.135Z,319.40
2022-10-25T09:27:27.314Z,310.05
2022-10-25T09:28:26.565Z,311.24
2022-10-25T09:29:27.715Z,324.28
2022-10-25T09:30:33.534Z,324.93
2022-10-25T09:31:27.020Z,323.19
2022-10-25T09:32:52.110Z,341.77
2022-10-25T09:33:26.350Z,348.89
2022-10-25T09:34:27.557Z,371.90
2022-10-25T09:35:26.759Z,370.94
2022-10-25T09:36:26.952Z,365.41
2022-10-25T09:37:27.097Z,339.74
2022-10-25T09:38:26.307Z,327.53
2022-10-25T09:39:26.465Z,311.94
2022-10-25T09:40:27.707Z,299.27
2022-10-25T09:41:26.875Z,292.80
2022-10-25T09:42:28.185Z,289.64
2022-10-25T09:43:27.295Z,286.70
2022-10-25T09:44:26.497Z,281.36
2022-10-25T09:45:26.685Z,275.37
2022-10-25T09:46:26.881Z,270.09
2022-10-25T09:47:26.023Z,266.97
2022-10-25T09:48:27.327Z,264.76
2022-10-25T09:49:27.457Z,264.13
2022-10-25T09:50:26.633Z,266.13
2022-10-25T09:51:26.816Z,269.54
2022-10-25T09:52:27.016Z,269.26
2022-10-25T09:53:27.193Z,263.85
2022-10-25T09:54:27.870Z,256.88
2022-10-25T09:55:26.567Z,251.08
2022-10-25T09:56:26.729Z,246.78
2022-10-25T09:57:26.921Z,242.69
2022-10-25T09:58:28.211Z,237.89
2022-10-25T09:59:26.298Z,236.42
2022-10-25T10:00:27.591Z,238.52
2022-10-25T10:01:26.827Z,243.96
2022-10-25T10:03:06.336Z,245.25
2022-10-25T10:03:26.090Z,243.90
2022-10-25T10:04:26.308Z,239.43
2022-10-25T10:05:26.454Z,234.62
2022-10-25T10:06:26.800Z,233.82
2022-10-25T10:07:25.801Z,235.03
2022-10-25T10:08:27.041Z,234.81
2022-10-25T10:09:27.292Z,235.32
2022-10-25T10:10:27.409Z,235.93
2022-10-25T10:11:27.656Z,233.64
2022-10-25T10:12:25.732Z,229.52
2022-10-25T10:13:25.924Z,223.88
2022-10-25T10:14:27.153Z,217.85
2022-10-25T10:15:27.303Z,214.43
2022-10-25T10:16:26.460Z,213.74
2022-10-25T10:17:27.102Z,213.90
2022-10-25T10:18:25.762Z,213.42
2022-10-25T10:19:28.030Z,212.18
2022-10-25T10:20:28.254Z,208.69
2022-10-25T10:21:26.293Z,205.76
2022-10-25T10:22:26.505Z,205.50
2022-10-25T10:23:26.729Z,210.33
2022-10-25T10:24:25.773Z,217.59
2022-10-25T10:25:51.899Z,230.76
2022-10-25T10:26:26.121Z,236.12
2022-10-25T10:27:26.367Z,244.01
2022-10-25T10:28:26.431Z,251.29
2022-10-25T10:29:25.684Z,259.25
2022-10-25T10:30:26.847Z,270.11
2022-10-25T10:31:27.051Z,285.45
2022-10-25T10:32:26.149Z,299.45
2022-10-25T10:33:28.375Z,318.60
2022-10-25T10:34:26.812Z,332.07
2022-10-25T10:35:26.705Z,335.04
2022-10-25T10:36:25.807Z,326.82
2022-10-25T10:37:26.002Z,320.51
2022-10-25T10:38:26.181Z,313.51
2022-10-25T10:39:26.325Z,308.17
2022-10-25T10:40:26.578Z,306.18
2022-10-25T10:41:26.755Z,305.64
2022-10-25T10:42:25.853Z,308.85
2022-10-25T10:43:27.035Z,313.58
2022-10-25T10:44:26.256Z,314.65
2022-10-25T10:45:25.296Z,314.56
2022-10-25T10:46:25.500Z,310.35
2022-10-25T10:47:25.776Z,301.80
2022-10-25T10:48:27.883Z,296.16
2022-10-25T10:49:26.758Z,289.10
2022-10-25T10:50:26.202Z,283.13
2022-10-25T10:51:42.966Z,278.41
2022-10-25T10:52:28.713Z,275.21
2022-10-25T10:53:26.777Z,278.78
2022-10-25T10:54:25.879Z,284.08
2022-10-25T10:55:26.120Z,286.95
2022-10-25T10:56:25.140Z,287.90
2022-10-25T10:57:25.308Z,285.75
2022-10-25T10:58:25.699Z,281.15
2022-10-25T10:59:27.719Z,276.70
2022-10-25T11:00:25.800Z,273.99
2022-10-25T11:01:28.159Z,274.33
2022-10-25T11:02:57.319Z,276.06
2022-10-25T11:03:25.292Z,276.56
2022-10-25T11:04:26.388Z,275.61
2022-10-25T11:05:31.937Z,273.23
2022-10-25T11:06:25.838Z,270.86
2022-10-25T11:07:25.920Z,270.10
2022-10-25T11:08:25.040Z,271.60
2022-10-25T11:09:25.195Z,277.61
2022-10-25T11:10:26.530Z,280.84
2022-10-25T11:11:31.807Z,279.56
2022-10-25T11:12:26.729Z,280.59
2022-10-25T11:13:25.929Z,282.32
2022-10-25T11:14:27.121Z,282.71
2022-10-25T11:15:25.215Z,282.41
2022-10-25T11:16:27.318Z,293.86
2022-10-25T11:17:25.644Z,299.65
2022-10-25T11:18:25.681Z,284.12
2022-10-25T11:19:25.857Z,262.19
2022-10-25T11:20:26.041Z,250.85
2022-10-25T11:21:25.189Z,246.60
2022-10-25T11:22:30.715Z,244.33
2022-10-25T11:23:26.517Z,258.71
2022-10-25T11:24:26.829Z,273.73
2022-10-25T11:25:53.842Z,283.32
2022-10-25T11:26:24.941Z,281.89
2022-10-25T11:27:25.180Z,282.59
2022-10-25T11:28:26.299Z,278.44
2022-10-25T11:29:26.434Z,269.38
2022-10-25T11:30:25.568Z,263.55
2022-10-25T11:31:26.761Z,271.36
2022-10-25T11:32:25.997Z,295.58
2022-10-25T11:33:25.019Z,345.56
2022-10-25T11:34:25.204Z,363.40
2022-10-25T11:35:25.369Z,408.36
2022-10-25T11:36:25.493Z,391.23
2022-10-25T11:37:24.610Z,407.88
2022-10-25T11:38:25.877Z,411.13
2022-10-25T11:39:26.272Z,397.66
2022-10-25T11:40:25.119Z,371.68
2022-10-25T11:41:25.363Z,338.27
2022-10-25T11:42:25.480Z,324.72
2022-10-25T11:43:25.655Z,315.23
2022-10-25T11:44:26.899Z,312.80
2022-10-25T11:45:25.005Z,320.31
2022-10-25T11:46:25.069Z,334.54
2022-10-25T11:47:25.237Z,355.82
2022-10-25T11:48:25.408Z,335.16
2022-10-25T11:49:25.588Z,327.04
2022-10-25T11:50:24.715Z,319.08
2022-10-25T11:51:28.015Z,308.58
2022-10-25T11:52:25.014Z,298.32
2022-10-25T11:53:25.194Z,291.34
2022-10-25T11:54:25.369Z,289.47
2022-10-25T11:55:26.619Z,286.24
2022-10-25T11:56:24.612Z,281.33
2022-10-25T11:57:24.793Z,276.76
2022-10-25T11:58:25.984Z,277.45
2022-10-25T11:59:26.238Z,285.60
2022-10-25T12:01:24.554Z,315.24
2022-10-25T12:03:06.034Z,338.00
2022-10-25T12:03:24.749Z,342.36
2022-10-25T12:04:28.407Z,380.97
2022-10-25T12:05:26.181Z,389.29
2022-10-25T12:06:25.218Z,469.82
2022-10-25T12:07:24.748Z,404.82
2022-10-25T12:08:26.567Z,481.33
2022-10-25T12:09:24.659Z,424.09
2022-10-25T12:10:25.879Z,448.80
2022-10-25T12:11:26.112Z,440.18
2022-10-25T12:12:24.107Z,471.42
2022-10-25T12:13:26.337Z,558.74
2022-10-25T12:14:25.499Z,479.01
2022-10-25T12:15:24.591Z,487.49
2022-10-25T12:16:24.760Z,486.87
2022-10-25T12:17:24.982Z,479.05
2022-10-25T12:18:26.199Z,461.39
2022-10-25T12:19:24.237Z,470.66
2022-10-25T12:20:25.552Z,476.98
2022-10-25T12:21:25.621Z,474.95
2022-10-25T12:22:24.783Z,654.10
2022-10-25T12:23:26.059Z,466.65
2022-10-25T12:24:25.081Z,467.76
2022-10-25T12:25:24.231Z,474.41
2022-10-25T12:26:25.554Z,490.45
2022-10-25T12:27:24.567Z,502.17
2022-10-25T12:28:25.833Z,509.27
2022-10-25T12:29:26.091Z,497.74
2022-10-25T12:31:24.245Z,497.47
2022-10-25T12:32:25.427Z,491.85
2022-10-25T12:33:26.613Z,590.96
2022-10-25T12:34:25.802Z,542.53
2022-10-25T12:35:24.941Z,567.48
2022-10-25T12:36:25.193Z,581.81
2022-10-25T12:37:24.185Z,581.25
2022-10-25T12:38:24.365Z,579.18
2022-10-25T12:39:24.570Z,565.02
2022-10-25T12:41:25.373Z,550.78
2022-10-25T12:42:26.142Z,552.33
2022-10-25T12:43:26.303Z,539.24
2022-10-25T12:44:25.401Z,501.39
2022-10-25T12:45:26.602Z,504.39
2022-10-25T12:46:24.701Z,508.67
2022-10-25T12:47:23.853Z,511.20
2022-10-25T12:48:25.019Z,426.89
2022-10-25T12:49:26.267Z,418.19
2022-10-25T12:50:24.359Z,417.16
2022-10-25T12:51:24.515Z,411.57
2022-10-25T12:52:24.673Z,401.27
2022-10-25T12:53:23.804Z,463.06
2022-10-25T12:54:26.037Z,457.96
2022-10-25T12:55:26.195Z,459.57
2022-10-25T12:56:24.346Z,470.29
2022-10-25T12:57:24.449Z,484.37
2022-10-25T12:58:24.659Z,498.77
2022-10-25T12:59:23.752Z,516.78
2022-10-25T13:00:25.003Z,538.21
2022-10-25T13:01:25.184Z,564.06
2022-10-25T13:02:24.321Z,586.35
2022-10-25T13:03:39.545Z,638.44
2022-10-25T13:04:23.683Z,678.76
2022-10-25T13:05:24.949Z,739.67
2022-10-25T13:06:24.046Z,779.05